»·PEaware :: N729MZ KSBP-KBFL

N729MZ :: KSBP-KBFL

FLIGHT INFORMATION

Flight Status: Arrived
Operator: Privately registered:
United States
More flights under this callsign
Pilot: Jari J. (4222)
Aircraft: CESSNA 172 SKYHAWK
(C172)
More flights by this aircraft type
Origin: KSBP San Luis Co Regl
United States
Destination: KBFL Meadows
United States
More flights between these airports :: More routes between these airports
Route: +PRB V248 EHF
File this flight plan on PilotEdge
Remarks:
Altitude:
(Current/Filed)
7,000ft
Speed:
(Current/Filed)
120kts
Departed: 04-Aug-15 10:37 AM
Arrived: 04-Aug-15 11:38 AM
Distance/Time
Traveled:
79nm/1:01
Distance/Time
To Go:
Arrived

Flight Plot

Page will automatically refresh every two minutes.


Map Options




Map Legend


Flown Route
Filed Route
Departure Airport
Arrival Airport
Navaid (VOR, NDB)
Fix

Horizontal Profiles

Position Reports

Time Latitude Longitude Heading Altitude Ground
Speed
04-Aug-15 10:26 35.238057 -120.647664 88 215ft 0kts
04-Aug-15 10:27 35.238057 -120.647659 88 215ft 0kts
04-Aug-15 10:28 35.238057 -120.647654 88 215ft 0kts
04-Aug-15 10:29 35.238057 -120.647649 88 215ft 0kts
04-Aug-15 10:30 35.238057 -120.647645 88 215ft 0kts
04-Aug-15 10:31 35.238058 -120.647641 88 215ft 0kts
04-Aug-15 10:32 35.238058 -120.647638 88 215ft 0kts
04-Aug-15 10:33 35.238058 -120.647635 88 215ft 0kts
04-Aug-15 10:34 35.238058 -120.647631 88 215ft 0kts
04-Aug-15 10:35 35.238058 -120.647628 88 215ft 0kts
04-Aug-15 10:36 35.238058 -120.647624 88 215ft 0kts
04-Aug-15 10:37 35.238058 -120.647621 88 215ft 0kts
04-Aug-15 10:38 35.238058 -120.647617 88 215ft 0kts
04-Aug-15 10:39 35.238058 -120.647614 88 215ft 0kts
04-Aug-15 10:40 35.238059 -120.647564 88 215ft 0kts
04-Aug-15 10:41 35.237421 -120.646859 91 215ft 6kts
04-Aug-15 10:42 35.237483 -120.643465 75 215ft 9kts
04-Aug-15 10:43 35.237388 -120.639209 124 215ft 15kts
04-Aug-15 10:44 35.234736 -120.634541 123 215ft 15kts
04-Aug-15 10:45 35.233283 -120.632294 270 215ft 0kts
04-Aug-15 10:46 35.233283 -120.632300 270 215ft 0kts
04-Aug-15 10:47 35.233014 -120.632852 219 215ft 9kts
04-Aug-15 10:48 35.242013 -120.649288 304 929ft 81kts
04-Aug-15 10:49 35.253405 -120.673566 299 2016ft 95kts
04-Aug-15 10:50 35.267880 -120.704023 300 2463ft 101kts
04-Aug-15 10:51 35.281742 -120.733349 300 2959ft 98kts
04-Aug-15 10:52 35.302473 -120.750584 7 3483ft 99kts
04-Aug-15 10:53 35.329143 -120.741237 13 4003ft 100kts
04-Aug-15 10:54 35.356163 -120.732445 12 4501ft 101kts
04-Aug-15 10:55 35.383981 -120.723510 12 5013ft 104kts
04-Aug-15 10:56 35.412316 -120.714386 13 5513ft 105kts
04-Aug-15 10:57 35.441187 -120.705091 13 6018ft 109kts
04-Aug-15 10:58 35.471333 -120.695366 13 6395ft 111kts
04-Aug-15 10:59 35.500893 -120.683699 16 6787ft 111kts
04-Aug-15 11:00 35.531776 -120.673230 13 7007ft 123kts
04-Aug-15 11:01 35.565294 -120.662361 13 6997ft 122kts
04-Aug-15 11:02 35.598306 -120.651668 13 6999ft 122kts
04-Aug-15 11:03 35.632208 -120.640685 13 6999ft 127kts
04-Aug-15 11:04 35.665569 -120.629129 30 6990ft 123kts
04-Aug-15 11:05 35.671253 -120.591331 94 6998ft 117kts
04-Aug-15 11:06 35.670192 -120.551310 96 7000ft 117kts
04-Aug-15 11:07 35.668749 -120.511253 96 7000ft 117kts
04-Aug-15 11:08 35.667290 -120.471189 96 7000ft 117kts
04-Aug-15 11:09 35.665724 -120.429012 96 6998ft 126kts
04-Aug-15 11:10 35.664215 -120.387689 96 6996ft 118kts
04-Aug-15 11:11 35.662712 -120.347649 96 6997ft 117kts
04-Aug-15 11:12 35.661269 -120.307645 95 6997ft 117kts
04-Aug-15 11:13 35.660282 -120.267583 96 6997ft 116kts
04-Aug-15 11:14 35.658779 -120.226303 96 6996ft 122kts
04-Aug-15 11:15 35.657284 -120.185547 97 6993ft 117kts
04-Aug-15 11:16 35.655669 -120.143689 96 6991ft 124kts
04-Aug-15 11:17 35.654038 -120.101360 96 6989ft 123kts
04-Aug-15 11:18 35.652478 -120.060444 97 6989ft 117kts
04-Aug-15 11:19 35.650913 -120.020386 97 6988ft 116kts
04-Aug-15 11:20 35.649196 -119.978631 99 6986ft 124kts
04-Aug-15 11:21 35.642172 -119.938962 106 6976ft 116kts
04-Aug-15 11:22 35.636526 -119.906740 106 6970ft 114kts
04-Aug-15 11:23 35.627908 -119.869050 109 6969ft 114kts
04-Aug-15 11:24 35.619359 -119.824410 107 6975ft 115kts
04-Aug-15 11:25 35.612896 -119.788807 106 6971ft 133kts
04-Aug-15 11:26 35.605676 -119.748014 107 6959ft 114kts
04-Aug-15 11:27 35.597994 -119.706063 106 6970ft 135kts
04-Aug-15 11:28 35.589923 -119.661192 106 6949ft 130kts
04-Aug-15 11:29 35.583088 -119.622963 106 6960ft 108kts
04-Aug-15 11:30 35.576507 -119.586792 106 6956ft 108kts
04-Aug-15 11:31 35.569964 -119.550722 106 6957ft 108kts
04-Aug-15 11:32 35.563431 -119.514750 107 6955ft 108kts
04-Aug-15 11:33 35.556381 -119.476301 106 6960ft 120kts
04-Aug-15 11:34 35.548976 -119.438290 113 6778ft 108kts
04-Aug-15 11:35 35.538376 -119.400958 113 6128ft 116kts
04-Aug-15 11:36 35.527650 -119.363550 112 5425ft 115kts
04-Aug-15 11:37 35.516323 -119.325286 113 4949ft 112kts
04-Aug-15 11:38 35.506264 -119.290640 110 4945ft 107kts
04-Aug-15 11:39 35.495777 -119.254548 108 4423ft 111kts
04-Aug-15 11:40 35.486627 -119.219768 109 3799ft 104kts
04-Aug-15 11:41 35.474146 -119.187623 117 3232ft 104kts
04-Aug-15 11:42 35.460485 -119.156746 120 2623ft 101kts
04-Aug-15 11:43 35.445626 -119.126738 121 2020ft 102kts
04-Aug-15 11:44 35.428722 -119.099604 132 1505ft 109kts
04-Aug-15 11:45 35.411021 -119.073807 127 1556ft 94kts
04-Aug-15 11:46 35.396133 -119.048821 70 1433ft 73kts
04-Aug-15 11:47 35.410211 -119.033447 13 946ft 61kts
04-Aug-15 11:48 35.425637 -119.046213 316 636ft 65kts
04-Aug-15 11:49 35.435423 -119.058006 320 510ft 19kts
04-Aug-15 11:50 35.436162 -119.057914 48 510ft 0kts
04-Aug-15 11:51 35.436498 -119.057113 316 510ft 3kts
04-Aug-15 11:52 35.437413 -119.056217 93 510ft 7kts
04-Aug-15 11:53 35.437944 -119.055379 101 510ft 0kts
04-Aug-15 11:54 35.437944 -119.055379 101 510ft 0kts

Navigation Log

Ident Type
Flight plan parsing failed, navigation log unavailable